createdAt,value
2018-07-10T00:02:10.473Z,2.80
2018-07-10T00:04:42.100Z,2.87
2018-07-10T00:07:15.920Z,2.47
2018-07-10T00:09:46.871Z,2.93
2018-07-10T00:12:14.000Z,2.87
2018-07-10T00:14:41.152Z,2.90
2018-07-10T00:17:08.277Z,3.23
2018-07-10T00:19:35.425Z,2.93
2018-07-10T00:22:02.545Z,3.33
2018-07-10T00:24:29.728Z,3.10
2018-07-10T00:26:56.852Z,3.43
2018-07-10T00:29:23.953Z,3.63
2018-07-10T00:31:51.133Z,3.43
2018-07-10T00:34:18.348Z,3.53
2018-07-10T00:36:45.457Z,3.70
2018-07-10T00:39:12.569Z,3.70
2018-07-10T00:41:40.793Z,3.73
2018-07-10T00:44:08.381Z,4.07
2018-07-10T00:46:36.686Z,3.57
2018-07-10T00:49:03.821Z,3.50
2018-07-10T00:51:32.128Z,3.40
2018-07-10T00:53:59.243Z,2.90
2018-07-10T00:56:26.357Z,3.33
2018-07-10T00:58:54.424Z,3.17
2018-07-10T01:01:22.657Z,3.23
2018-07-10T01:03:50.384Z,3.33
2018-07-10T01:06:17.530Z,3.03
2018-07-10T01:08:45.117Z,3.00
2018-07-10T01:11:13.406Z,3.30
2018-07-10T01:13:41.596Z,3.17
2018-07-10T01:16:08.715Z,2.80
2018-07-10T01:18:37.461Z,2.70
2018-07-10T01:21:05.461Z,3.30
2018-07-10T01:23:32.586Z,2.73
2018-07-10T01:25:59.707Z,2.97
2018-07-10T01:28:27.339Z,3.20
2018-07-10T01:30:54.466Z,2.43
2018-07-10T01:33:21.603Z,2.90
2018-07-10T01:35:48.721Z,2.53
2018-07-10T01:38:15.849Z,2.30
2018-07-10T01:40:42.998Z,2.20
2018-07-10T01:43:10.145Z,2.20
2018-07-10T01:45:37.261Z,2.03
2018-07-10T01:48:04.439Z,2.63
2018-07-10T01:50:31.546Z,2.37
2018-07-10T01:52:58.669Z,2.30
2018-07-10T01:55:25.869Z,3.00
2018-07-10T01:57:53.544Z,3.50
2018-07-10T02:00:26.085Z,3.70
2018-07-10T02:02:53.200Z,3.87
2018-07-10T02:05:20.311Z,4.03
2018-07-10T02:07:47.444Z,3.70
2018-07-10T02:10:14.623Z,3.60
2018-07-10T02:12:41.826Z,3.40
2018-07-10T02:15:08.905Z,3.13
2018-07-10T02:17:36.057Z,3.50
2018-07-10T02:20:09.768Z,2.83
2018-07-10T02:22:36.918Z,3.20
2018-07-10T02:25:04.037Z,2.80
2018-07-10T02:27:31.234Z,2.83
2018-07-10T02:29:58.337Z,2.47
2018-07-10T02:32:25.448Z,3.00
2018-07-10T02:34:52.632Z,2.27
2018-07-10T02:37:20.293Z,2.30
2018-07-10T02:39:47.420Z,2.67
2018-07-10T02:42:14.544Z,2.60
2018-07-10T02:44:41.837Z,3.00
2018-07-10T02:47:09.350Z,2.63
2018-07-10T02:49:36.470Z,2.90
2018-07-10T02:52:03.605Z,3.10
2018-07-10T02:54:32.685Z,2.60
2018-07-10T02:56:59.802Z,2.43
2018-07-10T02:59:30.685Z,2.87
2018-07-10T03:01:57.856Z,2.90
2018-07-10T03:04:24.971Z,3.10
2018-07-10T03:06:52.081Z,2.50
2018-07-10T03:09:19.203Z,2.40
2018-07-10T03:11:46.317Z,2.60
2018-07-10T03:14:13.417Z,2.30
2018-07-10T03:16:40.535Z,2.70
2018-07-10T03:19:09.321Z,2.40
2018-07-10T03:21:36.440Z,2.70
2018-07-10T03:24:03.571Z,2.30
2018-07-10T03:26:30.685Z,2.47
2018-07-10T03:28:57.812Z,2.50
2018-07-10T03:31:24.925Z,2.90
2018-07-10T03:33:52.058Z,2.40
2018-07-10T03:36:19.188Z,2.40
2018-07-10T03:38:46.303Z,2.53
2018-07-10T03:41:13.492Z,2.40
2018-07-10T03:43:40.653Z,2.43
2018-07-10T03:46:07.754Z,2.67
2018-07-10T03:48:34.895Z,2.50
2018-07-10T03:51:02.269Z,2.10
2018-07-10T03:53:29.388Z,2.47
2018-07-10T03:55:56.536Z,2.90
2018-07-10T03:58:23.654Z,2.83
2018-07-10T04:00:50.807Z,2.63
2018-07-10T04:03:18.854Z,2.67
2018-07-10T04:05:45.972Z,2.70
2018-07-10T04:08:13.484Z,2.80
2018-07-10T04:10:40.625Z,2.90
2018-07-10T04:13:09.804Z,2.70
2018-07-10T04:15:37.543Z,2.70
2018-07-10T04:18:06.232Z,3.30
2018-07-10T04:20:39.850Z,2.70
2018-07-10T04:23:06.961Z,2.80
2018-07-10T04:25:34.687Z,2.70
2018-07-10T04:28:06.997Z,2.90
2018-07-10T04:30:36.589Z,2.80
2018-07-10T04:33:03.906Z,2.83
2018-07-10T04:35:31.029Z,3.00
2018-07-10T04:37:58.156Z,3.27
2018-07-10T04:40:25.844Z,3.60
2018-07-10T04:42:58.867Z,3.10
2018-07-10T04:45:28.577Z,2.87
2018-07-10T04:47:56.253Z,3.13
2018-07-10T04:50:24.244Z,3.00
2018-07-10T04:52:52.741Z,3.00
2018-07-10T04:55:20.032Z,3.03
2018-07-10T04:57:51.060Z,2.77
2018-07-10T05:00:18.214Z,2.97
2018-07-10T05:02:45.366Z,2.70
2018-07-10T05:05:12.475Z,2.73
2018-07-10T05:07:39.613Z,2.50
2018-07-10T05:10:06.721Z,2.10
2018-07-10T05:12:33.939Z,2.00
2018-07-10T05:15:01.060Z,1.97
2018-07-10T05:17:28.185Z,1.90
2018-07-10T05:19:55.754Z,1.67
2018-07-10T05:22:22.870Z,1.50
2018-07-10T05:24:50.082Z,1.90
2018-07-10T05:27:17.220Z,1.67
2018-07-10T05:29:44.637Z,1.80
2018-07-10T05:32:12.645Z,1.70
2018-07-10T05:34:40.193Z,1.77
2018-07-10T05:37:07.924Z,1.70
2018-07-10T05:39:35.128Z,2.10
2018-07-10T05:42:02.270Z,1.53
2018-07-10T05:44:29.808Z,1.33
2018-07-10T05:46:57.725Z,1.77
2018-07-10T05:49:24.862Z,2.20
2018-07-10T05:51:52.579Z,2.00
2018-07-10T05:54:20.106Z,1.80
2018-07-10T05:56:47.201Z,1.80
2018-07-10T05:59:14.359Z,1.57
2018-07-10T06:01:41.685Z,1.97
2018-07-10T06:04:11.775Z,1.60
2018-07-10T06:06:38.880Z,1.37
2018-07-10T06:09:06.621Z,1.50
2018-07-10T06:11:34.165Z,2.27
2018-07-10T06:14:01.291Z,1.47
2018-07-10T06:16:28.398Z,1.90
2018-07-10T06:18:56.533Z,1.63
2018-07-10T06:21:24.194Z,1.73
2018-07-10T06:23:51.807Z,1.70
2018-07-10T06:26:18.934Z,1.87
2018-07-10T06:28:49.555Z,1.50
2018-07-10T06:31:17.133Z,1.43
2018-07-10T06:33:45.380Z,1.60
2018-07-10T06:36:17.337Z,1.60
2018-07-10T06:38:46.840Z,1.50
2018-07-10T06:41:13.971Z,1.40
2018-07-10T06:43:43.261Z,1.50
2018-07-10T06:46:10.873Z,1.43
2018-07-10T06:48:40.945Z,1.47
2018-07-10T06:51:09.381Z,1.77
2018-07-10T06:53:36.590Z,1.40
2018-07-10T06:56:03.625Z,1.60
2018-07-10T06:58:32.252Z,1.70
2018-07-10T07:00:59.354Z,1.57
2018-07-10T07:03:26.552Z,1.87
2018-07-10T07:05:53.665Z,1.80
2018-07-10T07:08:21.699Z,1.63
2018-07-10T07:10:48.798Z,1.77
2018-07-10T07:13:15.920Z,1.80
2018-07-10T07:15:43.161Z,1.87
2018-07-10T07:18:10.280Z,2.10
2018-07-10T07:20:37.431Z,2.17
2018-07-10T07:23:04.516Z,1.90
2018-07-10T07:25:31.633Z,2.20
2018-07-10T07:27:58.740Z,2.77
2018-07-10T07:30:25.887Z,2.20
2018-07-10T07:32:53.308Z,2.10
2018-07-10T07:35:20.449Z,2.07
2018-07-10T07:37:47.609Z,2.27
2018-07-10T07:40:14.833Z,2.00
2018-07-10T07:42:42.018Z,2.20
2018-07-10T07:45:09.167Z,1.93
2018-07-10T07:47:36.285Z,2.03
2018-07-10T07:50:03.393Z,2.20
2018-07-10T07:52:31.605Z,2.20
2018-07-10T07:55:00.145Z,1.90
2018-07-10T07:57:27.439Z,1.90
2018-07-10T07:59:54.521Z,1.90
2018-07-10T08:02:22.555Z,1.60
2018-07-10T08:04:49.778Z,2.50
2018-07-10T08:07:17.785Z,2.17
2018-07-10T08:09:44.872Z,2.10
2018-07-10T08:12:12.025Z,1.60
2018-07-10T08:14:39.158Z,1.60
2018-07-10T08:17:06.377Z,1.60
2018-07-10T08:19:33.472Z,1.63
2018-07-10T08:22:00.595Z,1.87
2018-07-10T08:24:27.713Z,1.50
2018-07-10T08:26:56.046Z,1.50
2018-07-10T08:29:23.418Z,1.70
2018-07-10T08:31:50.849Z,1.60
2018-07-10T08:34:17.941Z,1.40
2018-07-10T08:36:45.149Z,1.90
2018-07-10T08:39:12.249Z,3.07
2018-07-10T08:41:47.090Z,2.27
2018-07-10T08:44:14.944Z,2.50
2018-07-10T08:46:42.321Z,1.50
2018-07-10T08:49:10.877Z,1.63
2018-07-10T08:51:38.052Z,1.90
2018-07-10T08:54:05.297Z,2.30
2018-07-10T08:56:32.411Z,1.47
2018-07-10T08:58:59.681Z,1.57
2018-07-10T09:01:27.130Z,1.50
2018-07-10T09:03:54.262Z,1.57
2018-07-10T09:06:21.360Z,1.73
2018-07-10T09:08:48.484Z,1.87
2018-07-10T09:11:15.631Z,1.67
2018-07-10T09:13:42.725Z,1.50
2018-07-10T09:16:09.846Z,1.30
2018-07-10T09:18:36.996Z,1.50
2018-07-10T09:21:04.109Z,1.60
2018-07-10T09:23:31.537Z,1.80
2018-07-10T09:26:00.157Z,1.47
2018-07-10T09:28:27.678Z,2.00
2018-07-10T09:30:54.792Z,1.57
2018-07-10T09:33:21.903Z,1.80
2018-07-10T09:35:49.016Z,1.53
2018-07-10T09:38:16.173Z,1.60
2018-07-10T09:40:44.449Z,1.90
2018-07-10T09:43:11.585Z,2.03
2018-07-10T09:45:38.925Z,2.03
2018-07-10T09:48:07.033Z,2.07
2018-07-10T09:50:34.128Z,1.73
2018-07-10T09:53:02.761Z,1.83
2018-07-10T09:55:30.087Z,1.60
2018-07-10T09:57:57.937Z,2.07
2018-07-10T10:00:31.273Z,1.87
2018-07-10T10:02:58.360Z,1.60
2018-07-10T10:05:25.965Z,1.83
2018-07-10T10:07:53.069Z,1.70
2018-07-10T10:10:20.161Z,1.50
2018-07-10T10:12:47.273Z,1.90
2018-07-10T10:15:14.397Z,1.60
2018-07-10T10:17:41.510Z,1.63
2018-07-10T10:20:08.694Z,1.60
2018-07-10T10:22:35.792Z,1.43
2018-07-10T10:25:03.180Z,1.50
2018-07-10T10:27:30.781Z,1.70
2018-07-10T10:29:58.420Z,1.77
2018-07-10T10:32:25.547Z,1.57
2018-07-10T10:34:52.851Z,1.47
2018-07-10T10:37:20.359Z,1.60
2018-07-10T10:39:47.995Z,1.40
2018-07-10T10:42:16.510Z,1.43
2018-07-10T10:44:43.712Z,1.40
2018-07-10T10:47:11.312Z,1.50
2018-07-10T10:49:38.525Z,1.70
2018-07-10T10:52:05.997Z,1.70
2018-07-10T10:54:33.177Z,1.60
2018-07-10T10:57:00.277Z,1.83
2018-07-10T10:59:27.484Z,1.80
2018-07-10T11:01:55.408Z,1.47
2018-07-10T11:04:22.554Z,1.70
2018-07-10T11:06:49.677Z,1.87
2018-07-10T11:09:16.784Z,1.80
2018-07-10T11:11:43.938Z,1.97
2018-07-10T11:14:11.110Z,1.87
2018-07-10T11:16:38.645Z,2.00
2018-07-10T11:19:08.118Z,2.03
2018-07-10T11:21:39.168Z,2.27
2018-07-10T11:24:06.633Z,2.50
2018-07-10T11:26:50.557Z,2.60
2018-07-10T11:29:17.661Z,2.47
2018-07-10T11:31:44.909Z,2.57
2018-07-10T11:34:12.035Z,2.30
2018-07-10T11:36:39.164Z,2.80
2018-07-10T11:39:08.066Z,2.50
2018-07-10T11:41:38.097Z,2.40
2018-07-10T11:44:07.211Z,2.60
2018-07-10T11:46:34.324Z,2.10
2018-07-10T11:49:01.422Z,2.17
2018-07-10T11:51:28.703Z,1.97
2018-07-10T11:53:55.785Z,2.10
2018-07-10T11:56:22.936Z,1.87
2018-07-10T11:58:50.077Z,1.90
2018-07-10T12:01:17.188Z,2.00
2018-07-10T12:03:44.380Z,1.87
2018-07-10T12:06:11.525Z,1.70
2018-07-10T12:08:38.852Z,1.87
2018-07-10T12:11:11.397Z,1.83
2018-07-10T12:13:38.533Z,1.40
2018-07-10T12:16:05.689Z,2.50
2018-07-10T12:18:32.805Z,1.90
2018-07-10T12:21:00.018Z,1.97
2018-07-10T12:23:27.104Z,1.70
2018-07-10T12:25:54.220Z,1.80
2018-07-10T12:28:21.836Z,1.90
2018-07-10T12:30:48.959Z,1.80
2018-07-10T12:33:16.313Z,2.60
2018-07-10T12:35:43.408Z,2.10
2018-07-10T12:38:12.110Z,2.10
2018-07-10T12:40:39.237Z,2.10
2018-07-10T12:43:06.365Z,2.20
2018-07-10T12:45:33.569Z,2.77
2018-07-10T12:48:00.707Z,2.40
2018-07-10T12:50:27.877Z,2.70
2018-07-10T12:52:54.991Z,2.60
2018-07-10T12:55:22.708Z,2.70
2018-07-10T12:57:49.829Z,2.80
2018-07-10T13:00:16.937Z,2.70
2018-07-10T13:02:46.555Z,2.50
2018-07-10T13:05:14.361Z,2.83
2018-07-10T13:07:41.480Z,2.70
2018-07-10T13:10:08.768Z,4.30
2018-07-10T13:12:35.986Z,5.17
2018-07-10T13:15:03.084Z,5.43
2018-07-10T13:17:30.644Z,4.97
2018-07-10T13:20:00.181Z,5.10
2018-07-10T13:22:27.284Z,5.00
2018-07-10T13:24:54.397Z,4.90
2018-07-10T13:27:21.505Z,5.20
2018-07-10T13:29:49.065Z,4.83
2018-07-10T13:32:16.193Z,4.20
2018-07-10T13:34:43.322Z,4.30
2018-07-10T13:37:10.472Z,4.33
2018-07-10T13:39:37.749Z,5.10
2018-07-10T13:42:04.888Z,4.50
2018-07-10T13:44:32.037Z,4.50
2018-07-10T13:46:59.146Z,4.70
2018-07-10T13:49:26.304Z,5.00
2018-07-10T13:51:53.431Z,5.67
2018-07-10T13:54:20.585Z,5.60
2018-07-10T13:56:47.772Z,6.40
2018-07-10T13:59:14.846Z,6.83
2018-07-10T14:01:41.952Z,7.27
2018-07-10T14:04:09.126Z,6.30
2018-07-10T14:06:36.269Z,7.47
2018-07-10T14:09:04.353Z,7.07
2018-07-10T14:11:31.480Z,7.70
2018-07-10T14:13:58.609Z,8.07
2018-07-10T14:16:25.764Z,7.60
2018-07-10T14:18:54.960Z,7.57
2018-07-10T14:21:22.074Z,7.53
2018-07-10T14:23:49.204Z,8.70
2018-07-10T14:26:16.322Z,8.23
2018-07-10T14:28:43.429Z,7.90
2018-07-10T14:31:10.553Z,7.80
2018-07-10T14:33:37.662Z,7.17
2018-07-10T14:36:04.797Z,6.90
2018-07-10T14:38:31.913Z,7.53
2018-07-10T14:41:02.589Z,7.40
2018-07-10T14:43:31.824Z,7.47
2018-07-10T14:46:00.492Z,7.13
2018-07-10T14:48:28.036Z,6.80
2018-07-10T14:50:56.036Z,7.30
2018-07-10T14:53:23.175Z,7.60
2018-07-10T14:55:50.309Z,7.00
2018-07-10T14:58:17.476Z,7.00
2018-07-10T15:00:44.713Z,7.07
2018-07-10T15:03:11.838Z,6.63
2018-07-10T15:05:38.932Z,7.33
2018-07-10T15:08:06.151Z,6.70
2018-07-10T15:10:33.161Z,6.57
2018-07-10T15:13:00.272Z,6.60
2018-07-10T15:15:27.455Z,6.50
2018-07-10T15:18:00.088Z,6.47
2018-07-10T15:20:27.195Z,6.90
2018-07-10T15:22:54.304Z,7.00
2018-07-10T15:25:21.471Z,7.17
2018-07-10T15:27:48.596Z,6.73
2018-07-10T15:30:15.700Z,7.07
2018-07-10T15:32:42.827Z,6.50
2018-07-10T15:35:10.005Z,6.20
2018-07-10T15:37:37.124Z,6.50
2018-07-10T15:40:04.257Z,6.40
2018-07-10T15:42:31.384Z,6.43
2018-07-10T15:44:58.496Z,6.70
2018-07-10T15:47:25.609Z,7.00
2018-07-10T15:49:52.756Z,6.90
2018-07-10T15:52:20.270Z,6.40
2018-07-10T15:54:47.480Z,6.37
2018-07-10T15:57:14.865Z,6.53
2018-07-10T15:59:41.990Z,6.70
2018-07-10T16:02:09.161Z,6.87
2018-07-10T16:04:36.382Z,7.07
2018-07-10T16:07:03.497Z,6.97
2018-07-10T16:09:30.860Z,6.70
2018-07-10T16:12:00.681Z,6.80
2018-07-10T16:14:28.452Z,6.23
2018-07-10T16:16:55.565Z,6.43
2018-07-10T16:19:25.021Z,5.67
2018-07-10T16:21:55.059Z,6.67
2018-07-10T16:24:22.449Z,7.17
2018-07-10T16:26:49.686Z,7.63
2018-07-10T16:29:17.672Z,7.50
2018-07-10T16:31:44.814Z,7.20
2018-07-10T16:34:11.909Z,7.50
2018-07-10T16:36:39.134Z,7.30
2018-07-10T16:39:06.257Z,6.63
2018-07-10T16:41:38.787Z,7.20
2018-07-10T16:44:06.065Z,7.80
2018-07-10T16:46:33.532Z,6.80
2018-07-10T16:49:05.366Z,7.20
2018-07-10T16:51:38.469Z,7.40
2018-07-10T16:54:05.643Z,7.40
2018-07-10T16:56:32.774Z,7.30
2018-07-10T16:58:59.901Z,7.53
2018-07-10T17:01:27.513Z,7.50
2018-07-10T17:03:54.769Z,7.50
2018-07-10T17:06:22.863Z,7.20
2018-07-10T17:08:50.229Z,7.20
2018-07-10T17:11:17.352Z,7.40
2018-07-10T17:13:44.549Z,7.70
2018-07-10T17:16:23.777Z,7.90
2018-07-10T17:18:52.429Z,7.67
2018-07-10T17:21:19.525Z,7.63
2018-07-10T17:23:47.221Z,8.20
2018-07-10T17:26:14.345Z,8.93
2018-07-10T17:28:41.969Z,8.83
2018-07-10T17:31:09.077Z,8.40
2018-07-10T17:33:36.176Z,8.87
2018-07-10T17:36:03.341Z,9.07
2018-07-10T17:38:30.656Z,8.70
2018-07-10T17:40:57.748Z,7.60
2018-07-10T17:43:24.901Z,8.67
2018-07-10T17:45:52.085Z,9.30
2018-07-10T17:48:19.193Z,9.40
2018-07-10T17:50:46.326Z,9.20
2018-07-10T17:53:13.409Z,9.83
2018-07-10T17:55:40.532Z,9.90
2018-07-10T17:58:07.653Z,9.63
2018-07-10T18:00:35.290Z,10.27
2018-07-10T18:03:02.435Z,11.00
2018-07-10T18:05:29.565Z,12.07
2018-07-10T18:07:56.929Z,12.20
2018-07-10T18:10:24.462Z,9.87
2018-07-10T18:12:51.662Z,5.93
2018-07-10T18:15:18.772Z,8.27
2018-07-10T18:17:45.974Z,9.07
2018-07-10T18:20:13.081Z,7.80
2018-07-10T18:22:40.606Z,6.57
2018-07-10T18:25:07.714Z,6.40
2018-07-10T18:27:34.813Z,7.27
2018-07-10T18:30:01.906Z,6.47
2018-07-10T18:32:29.062Z,6.47
2018-07-10T18:34:56.158Z,6.97
2018-07-10T18:37:23.289Z,6.53
2018-07-10T18:39:50.417Z,7.43
2018-07-10T18:42:17.718Z,6.80
2018-07-10T18:44:44.721Z,6.50
2018-07-10T18:47:11.832Z,6.67
2018-07-10T18:49:39.028Z,6.13
2018-07-10T18:52:06.149Z,6.70
2018-07-10T18:54:38.809Z,6.47
2018-07-10T18:57:08.453Z,6.67
2018-07-10T18:59:36.548Z,7.17
2018-07-10T19:02:05.457Z,7.20
2018-07-10T19:04:51.336Z,7.30
2018-07-10T19:07:18.472Z,7.53
2018-07-10T19:09:45.737Z,6.83
2018-07-10T19:12:13.721Z,7.47
2018-07-10T19:14:41.236Z,7.70
2018-07-10T19:17:13.081Z,7.17
2018-07-10T19:19:44.396Z,8.17
2018-07-10T19:22:11.724Z,8.90
2018-07-10T19:24:40.294Z,7.70
2018-07-10T19:27:07.413Z,8.50
2018-07-10T19:29:42.073Z,7.97
2018-07-10T19:32:09.253Z,7.37
2018-07-10T19:34:36.495Z,7.50
2018-07-10T19:37:03.545Z,7.37
2018-07-10T19:39:30.681Z,7.73
2018-07-10T19:41:57.825Z,7.30
2018-07-10T19:44:24.961Z,7.37
2018-07-10T19:46:52.166Z,7.97
2018-07-10T19:49:21.005Z,8.10
2018-07-10T19:51:48.709Z,8.17
2018-07-10T19:54:15.898Z,8.27
2018-07-10T19:56:42.977Z,8.13
2018-07-10T19:59:11.076Z,8.30
2018-07-10T20:01:38.512Z,7.70
2018-07-10T20:04:08.526Z,7.83
2018-07-10T20:06:37.510Z,7.40
2018-07-10T20:09:05.214Z,7.30
2018-07-10T20:11:39.376Z,6.60
2018-07-10T20:14:06.746Z,7.80
2018-07-10T20:16:39.295Z,8.07
2018-07-10T20:19:08.581Z,7.90
2018-07-10T20:21:55.519Z,8.00
2018-07-10T20:24:23.042Z,8.03
2018-07-10T20:27:56.797Z,7.70
2018-07-10T20:30:27.078Z,6.70
2018-07-10T20:33:14.007Z,7.63
2018-07-10T20:35:49.968Z,8.17
2018-07-10T20:38:17.664Z,7.63
2018-07-10T20:40:44.808Z,7.40
2018-07-10T20:43:14.219Z,7.20
2018-07-10T20:45:47.144Z,7.40
2018-07-10T20:48:21.580Z,8.30
2018-07-10T20:51:03.773Z,7.50
2018-07-10T20:53:36.487Z,7.00
2018-07-10T20:56:07.405Z,7.27
2018-07-10T20:58:35.585Z,6.80
2018-07-10T21:01:03.073Z,7.50
2018-07-10T21:04:01.085Z,7.27
2018-07-10T21:06:53.177Z,7.53
2018-07-10T21:09:20.669Z,7.40
2018-07-10T21:12:20.621Z,7.13
2018-07-10T21:14:50.425Z,8.00
2018-07-10T21:17:18.212Z,7.33
2018-07-10T21:19:53.057Z,7.30
2018-07-10T21:22:25.070Z,7.23
2018-07-10T21:24:56.157Z,7.67
2018-07-10T22:50:25.603Z,6.57
2018-07-10T22:52:53.856Z,6.73
2018-07-10T22:55:23.220Z,6.13
2018-07-10T22:57:50.632Z,7.10
2018-07-10T23:00:23.061Z,6.77
2018-07-10T23:02:50.169Z,6.60
2018-07-10T23:05:17.277Z,6.60
2018-07-10T23:07:44.377Z,6.73
2018-07-10T23:10:11.462Z,6.00
2018-07-10T23:12:38.637Z,6.30
2018-07-10T23:15:05.761Z,5.87
2018-07-10T23:17:32.881Z,6.23
2018-07-10T23:19:59.980Z,6.33
2018-07-10T23:23:01.077Z,6.30
2018-07-10T23:25:28.190Z,6.50
2018-07-10T23:27:57.345Z,6.80
2018-07-10T23:30:24.924Z,6.40
2018-07-10T23:32:52.041Z,6.10
2018-07-10T23:35:19.145Z,5.80
2018-07-10T23:37:51.029Z,6.20
2018-07-10T23:40:18.802Z,6.67
2018-07-10T23:42:45.961Z,6.47
2018-07-10T23:45:15.078Z,6.20
2018-07-10T23:47:43.501Z,6.23
2018-07-10T23:50:13.997Z,6.27
2018-07-10T23:52:46.830Z,5.90
2018-07-10T23:55:14.035Z,6.40
2018-07-10T23:57:41.207Z,6.40
